Autryville, North Carolina
Current Conditions -  °F | °C
As of 8:53 AM on Tuesday 27 Jan 2015 (Local Time) from KFAY Reporting Station
Overcast Overcast  
Wind Chill: -1°   Ceiling: 3500
Heat Index:   Visibility: 10mi
Dew Point: -6°   Wind: 12mph
Humidity: 52%   Direction: 300°WNW
Pressure: 29.82"   Gusts: NA
Location:  35°N, 78.64°W
Report Text: KFAY 271353Z AUTO 30010KT 10SM OVC035 03/M06 A2982 RMK AO2 SLP094 T00281061
Loading
Personal Weather Stations






























Interactive Weather Map New forecast layout! Learn more

10-Day Weather Forecast

Advertisements
Track Severe Weather on mobile